This is the latest recevied weather packets stored in our database for station/object F4ACR-10. If no packets are shown the sender has not sent any weather packets the latest 10 day(s).
| Time | Temp. | Humidity | Pressure | Rain* | Wind** | Luminosity | Snow |
|---|---|---|---|---|---|---|---|
| 1787390661 | 20.56° C | 49% | 1023 hPa | - | - | - | - |
| 1787390061 | 20.56° C | 48% | 1023 hPa | - | - | - | - |
| 1787389460 | 21.11° C | 47% | 1022.9 hPa | - | - | - | - |
| 1787388860 | 21.11° C | 48% | 1023 hPa | - | - | - | - |
| 1787388260 | 20.56° C | 51% | 1023.1 hPa | - | - | - | - |
| 1787387660 | 20.56° C | 51% | 1022.8 hPa | - | - | - | - |
| 1787387060 | 20.56° C | 52% | 1022.7 hPa | - | - | - | - |
| 1787386459 | 19.44° C | 56% | 1022.8 hPa | - | - | - | - |
| 1787385859 | 20.56° C | 54% | 1022.9 hPa | - | - | - | - |
| 1787385259 | 20° C | 55% | 1022.9 hPa | - | - | - | - |
| 1787384659 | 19.44° C | 58% | 1022.7 hPa | - | - | - | - |
| 1787384058 | 18.33° C | 63% | 1022.8 hPa | - | - | - | - |
| 1787383458 | 17.22° C | 67% | 1023 hPa | - | - | - | - |
| 1787382858 | 17.78° C | 65% | 1022.9 hPa | - | - | - | - |
| 1787382258 | 18.33° C | 64% | 1022.7 hPa | - | - | - | - |
| 1787381657 | 17.22° C | 67% | 1022.6 hPa | - | - | - | - |
| 1787381057 | 16.11° C | 70% | 1022.7 hPa | - | - | - | - |
| 1787380457 | 15° C | 74% | 1022.6 hPa | - | - | - | - |
| 1787379857 | 14.44° C | 76% | 1022.6 hPa | - | - | - | - |
| 1787379257 | 13.89° C | 75% | 1022.5 hPa | - | - | - | - |
| 1787378656 | 13.89° C | 74% | 1022.3 hPa | - | - | - | - |
| 1787378056 | 16.11° C | 65% | 1022.2 hPa | - | - | - | - |
| 1787377456 | 14.44° C | 74% | 1022.3 hPa | - | - | - | - |
| 1787376856 | 11.67° C | 85% | 1022.3 hPa | - | - | - | - |
| 1787376256 | 11.67° C | 85% | 1022.1 hPa | - | - | - | - |
* Rain since midnight (hover to see other rain measurements)
** Current wind speed in m/s (hover to see current wind gust speed)